Time;durP1;ratioP1;P1;durP2;ratioP2;P2;SDS_P1;SDS_P2;PMS_P1;PMS_P2;Temp;Humidity;BMP_temperature;BMP_pressure;BME280_temperature;BME280_humidity;BME280_pressure;Samples;Min_cycle;Max_cycle;Signal;HPM_P1;HPM_P2
2023/01/22 00:02:04;;;;;;;;;;;1.50;99.90;;;;;;5048963;28;19929;-82
2023/01/22 00:04:31;;;;;;;;;;;1.60;99.90;;;;;;5058731;28;19932;-81
2023/01/22 00:07:00;;;;;;;;;;;1.60;99.90;;;;;;5043044;28;19936;-82
2023/01/22 00:09:26;;;;;;;;;;;1.60;99.90;;;;;;5047572;28;20371;-82
2023/01/22 00:11:53;;;;;;;;;;;1.60;99.90;;;;;;5050930;28;19940;-81
2023/01/22 00:14:20;;;;;;;;;;;1.70;99.90;;;;;;5048609;28;19936;-82
2023/01/22 00:16:47;;;;;;;;;;;1.60;99.90;;;;;;5056757;28;19951;-82
2023/01/22 00:19:14;;;;;;;;;;;1.70;99.90;;;;;;5042990;28;19928;-82
2023/01/22 00:21:41;;;;;;;;;;;1.60;99.90;;;;;;5058156;28;19947;-82
2023/01/22 00:24:09;;;;;;;;;;;1.70;99.90;;;;;;5054256;28;19928;-83
2023/01/22 00:26:36;;;;;;;;;;;1.80;99.90;;;;;;5059310;28;19951;-83
2023/01/22 00:29:03;;;;;;;;;;;1.80;99.90;;;;;;5052588;28;19952;-82
2023/01/22 00:31:30;;;;;;;;;;;1.80;99.90;;;;;;5040478;28;19972;-82
2023/01/22 00:33:57;;;;;;;;;;;1.80;99.90;;;;;;5038918;28;20277;-80
2023/01/22 00:36:24;;;;;;;;;;;1.80;99.90;;;;;;5047934;28;19929;-81
2023/01/22 00:38:51;;;;;;;;;;;1.80;99.90;;;;;;5045571;28;20034;-81
2023/01/22 00:41:20;;;;;;;;;;;1.90;99.90;;;;;;5049866;28;19928;-82
2023/01/22 00:43:47;;;;;;;;;;;1.90;99.90;;;;;;5050157;28;19944;-83
2023/01/22 00:46:16;;;;;;;;;;;1.90;99.90;;;;;;5070096;28;19928;-84
2023/01/22 00:48:44;;;;;;;;;;;1.90;99.90;;;;;;5046834;28;19963;-84
2023/01/22 00:51:11;;;;;;;;;;;1.90;99.90;;;;;;5052134;28;20392;-83
2023/01/22 00:53:40;;;;;;;;;;;1.90;99.90;;;;;;5046174;28;19933;-82
2023/01/22 00:56:07;;;;;;;;;;;1.90;99.90;;;;;;5053361;28;19929;-82
2023/01/22 00:58:35;;;;;;;;;;;1.80;99.90;;;;;;5045420;28;19931;-83
2023/01/22 01:01:03;;;;;;;;;;;1.90;99.90;;;;;;5056317;28;19924;-82
2023/01/22 01:03:30;;;;;;;;;;;1.90;99.90;;;;;;5037800;28;19935;-82
2023/01/22 01:05:59;;;;;;;;;;;1.90;99.90;;;;;;5040488;28;20388;-83
2023/01/22 01:08:27;;;;;;;;;;;1.90;99.90;;;;;;5045569;28;20508;-82
2023/01/22 01:10:54;;;;;;;;;;;1.90;99.90;;;;;;5042584;28;19924;-82
2023/01/22 01:13:22;;;;;;;;;;;2.00;99.90;;;;;;5041372;28;19925;-82
2023/01/22 01:15:50;;;;;;;;;;;2.00;99.90;;;;;;5057054;28;19928;-82
2023/01/22 01:18:17;;;;;;;;;;;2.10;99.90;;;;;;5047169;28;20339;-82
2023/01/22 01:20:53;;;;;;;;;;;2.10;99.90;;;;;;5045252;28;19929;-82
2023/01/22 01:23:20;;;;;;;;;;;2.10;99.90;;;;;;5038972;28;19936;-83
2023/01/22 01:25:46;;;;;;;;;;;2.10;99.90;;;;;;5043786;28;20522;-83
2023/01/22 01:28:13;;;;;;;;;;;2.00;99.90;;;;;;5060864;28;20463;-83
2023/01/22 01:30:40;;;;;;;;;;;2.00;99.90;;;;;;5038907;28;19929;-83
2023/01/22 01:33:08;;;;;;;;;;;2.00;99.90;;;;;;5040552;28;19963;-83
2023/01/22 01:35:40;;;;;;;;;;;2.10;99.90;;;;;;5039528;28;19978;-83
2023/01/22 01:38:07;;;;;;;;;;;2.10;99.90;;;;;;5041440;28;20023;-83
2023/01/22 01:40:41;;;;;;;;;;;2.10;99.90;;;;;;5066693;28;19928;-83
2023/01/22 01:43:11;;;;;;;;;;;2.10;99.90;;;;;;5045060;28;19937;-83
2023/01/22 01:45:44;;;;;;;;;;;2.10;99.90;;;;;;5054791;28;19939;-83
2023/01/22 01:48:17;;;;;;;;;;;2.10;99.90;;;;;;5076564;28;19925;-82
2023/01/22 01:50:47;;;;;;;;;;;2.10;99.90;;;;;;5043859;28;19933;-83
2023/01/22 01:53:14;;;;;;;;;;;2.10;99.90;;;;;;5038181;28;20387;-83
2023/01/22 01:55:41;;;;;;;;;;;2.10;99.90;;;;;;5038870;28;19933;-84
2023/01/22 01:58:12;;;;;;;;;;;2.10;99.90;;;;;;5038675;28;20380;-84
2023/01/22 02:00:41;;;;;;;;;;;2.10;99.90;;;;;;5049590;28;19973;-84
2023/01/22 02:03:08;;;;;;;;;;;2.10;99.90;;;;;;5049663;28;19960;-84
2023/01/22 02:05:38;;;;;;;;;;;2.00;99.90;;;;;;5041178;28;19947;-84
2023/01/22 02:08:07;;;;;;;;;;;2.00;99.90;;;;;;5046221;28;20023;-84
2023/01/22 02:10:34;;;;;;;;;;;2.00;99.90;;;;;;5051925;28;19933;-84
2023/01/22 02:13:03;;;;;;;;;;;2.00;99.90;;;;;;5055396;28;19936;-84
2023/01/22 02:15:30;;;;;;;;;;;2.00;99.90;;;;;;5038735;28;19956;-83
2023/01/22 02:17:57;;;;;;;;;;;1.90;99.90;;;;;;5038421;28;20553;-82
2023/01/22 02:20:24;;;;;;;;;;;1.90;99.90;;;;;;5055653;28;20032;-82
2023/01/22 02:22:53;;;;;;;;;;;1.90;99.90;;;;;;5048201;28;19925;-83
2023/01/22 02:25:20;;;;;;;;;;;1.90;99.90;;;;;;5071997;28;19928;-83
2023/01/22 02:27:47;;;;;;;;;;;1.90;99.90;;;;;;5039109;28;19946;-82
2023/01/22 02:30:15;;;;;;;;;;;1.90;99.90;;;;;;5039331;28;19921;-83
2023/01/22 02:32:42;;;;;;;;;;;1.90;99.90;;;;;;5045194;28;20028;-84
2023/01/22 02:35:09;;;;;;;;;;;2.00;99.90;;;;;;5050650;28;19995;-83
2023/01/22 02:37:37;;;;;;;;;;;2.10;99.90;;;;;;5038975;28;19967;-83
2023/01/22 02:40:06;;;;;;;;;;;2.10;99.90;;;;;;5053580;28;19924;-83
2023/01/22 02:42:33;;;;;;;;;;;2.10;99.90;;;;;;5053246;28;20308;-84
2023/01/22 02:45:00;;;;;;;;;;;2.20;99.90;;;;;;5057321;28;20662;-84
2023/01/22 02:47:31;;;;;;;;;;;2.20;99.90;;;;;;5056818;28;19929;-84
2023/01/22 02:49:58;;;;;;;;;;;2.20;99.90;;;;;;5050154;28;19925;-84
2023/01/22 02:52:25;;;;;;;;;;;2.30;99.90;;;;;;5064339;28;20423;-82
2023/01/22 02:54:52;;;;;;;;;;;2.20;99.90;;;;;;5056265;28;19933;-83
2023/01/22 02:57:20;;;;;;;;;;;2.20;99.90;;;;;;5046536;28;19928;-81
2023/01/22 02:59:48;;;;;;;;;;;2.20;99.90;;;;;;5052435;28;19928;-82
2023/01/22 03:02:15;;;;;;;;;;;2.20;99.90;;;;;;5068875;28;19933;-82
2023/01/22 03:04:42;;;;;;;;;;;2.20;99.90;;;;;;5058228;28;20390;-83
2023/01/22 03:07:10;;;;;;;;;;;2.10;99.90;;;;;;5043767;28;19932;-82
2023/01/22 03:09:37;;;;;;;;;;;2.00;99.90;;;;;;5037992;28;20035;-81
2023/01/22 03:12:04;;;;;;;;;;;1.90;99.90;;;;;;5038783;28;20018;-83
2023/01/22 03:22:50;;;;;;;;;;;1.90;99.90;;;;;;5022618;28;19924;-83
2023/01/22 03:25:20;;;;;;;;;;;1.90;99.90;;;;;;5053280;28;20392;-84
2023/01/22 03:30:31;;;;;;;;;;;1.70;99.90;;;;;;5046212;28;19931;-84
2023/01/22 03:32:59;;;;;;;;;;;1.70;99.90;;;;;;5061028;28;20372;-85
2023/01/22 03:35:26;;;;;;;;;;;1.60;99.90;;;;;;5065677;28;19929;-85
2023/01/22 03:38:10;;;;;;;;;;;1.60;99.90;;;;;;5036811;28;19979;-84
2023/01/22 03:40:37;;;;;;;;;;;1.50;99.90;;;;;;5039223;28;20008;-85
2023/01/22 03:43:04;;;;;;;;;;;1.40;99.90;;;;;;5064820;28;19932;-85
2023/01/22 03:45:34;;;;;;;;;;;1.30;99.90;;;;;;5040810;28;19975;-86
2023/01/22 03:48:01;;;;;;;;;;;1.30;99.90;;;;;;5041245;28;19964;-86
2023/01/22 03:50:34;;;;;;;;;;;1.20;99.90;;;;;;5051281;28;19928;-85
2023/01/22 03:53:02;;;;;;;;;;;1.20;99.90;;;;;;5053404;28;19944;-85
2023/01/22 03:55:31;;;;;;;;;;;1.20;99.90;;;;;;5055179;28;19925;-85
2023/01/22 03:57:58;;;;;;;;;;;1.20;99.90;;;;;;5045547;28;19928;-85
2023/01/22 04:00:25;;;;;;;;;;;1.20;99.90;;;;;;5042318;28;19960;-86
2023/01/22 04:02:54;;;;;;;;;;;1.20;99.90;;;;;;5054371;28;19960;-85
2023/01/22 04:05:25;;;;;;;;;;;1.30;99.90;;;;;;5047521;28;19930;-84
2023/01/22 04:07:52;;;;;;;;;;;1.30;99.90;;;;;;5068182;28;19932;-84
2023/01/22 04:10:24;;;;;;;;;;;1.30;99.90;;;;;;5068054;28;19996;-84
2023/01/22 04:12:51;;;;;;;;;;;1.30;99.90;;;;;;5049180;28;19939;-84
2023/01/22 04:15:21;;;;;;;;;;;1.30;99.90;;;;;;5042830;28;19936;-84
2023/01/22 04:17:50;;;;;;;;;;;1.30;99.90;;;;;;5044745;28;20303;-84
2023/01/22 04:20:38;;;;;;;;;;;1.30;99.90;;;;;;5051339;28;19951;-83
2023/01/22 04:23:18;;;;;;;;;;;1.30;99.90;;;;;;5070498;28;19928;-84
2023/01/22 04:25:45;;;;;;;;;;;1.30;99.90;;;;;;5050144;28;20575;-83
2023/01/22 04:28:13;;;;;;;;;;;1.20;99.90;;;;;;5051200;28;20022;-83
2023/01/22 04:30:41;;;;;;;;;;;1.20;99.90;;;;;;5053626;28;20002;-83
2023/01/22 04:33:25;;;;;;;;;;;1.20;99.90;;;;;;5057953;28;20019;-83
2023/01/22 04:36:09;;;;;;;;;;;1.30;99.90;;;;;;5034698;28;19979;-83
2023/01/22 04:38:36;;;;;;;;;;;1.30;99.90;;;;;;5048673;28;19983;-83
2023/01/22 04:41:03;;;;;;;;;;;1.30;99.90;;;;;;5051935;28;19933;-83
2023/01/22 04:43:30;;;;;;;;;;;1.30;99.90;;;;;;5046236;28;19929;-83
2023/01/22 04:45:57;;;;;;;;;;;1.30;99.90;;;;;;5051483;28;19924;-83
2023/01/22 04:48:29;;;;;;;;;;;1.20;99.90;;;;;;5044073;28;19929;-83
2023/01/22 04:50:56;;;;;;;;;;;1.20;99.90;;;;;;5047642;28;19924;-84
2023/01/22 04:53:27;;;;;;;;;;;1.20;99.90;;;;;;5050639;28;20480;-84
2023/01/22 04:55:55;;;;;;;;;;;1.10;99.90;;;;;;5051920;28;19932;-84
2023/01/22 04:58:23;;;;;;;;;;;1.10;99.90;;;;;;5044070;28;19935;-85
2023/01/22 05:00:51;;;;;;;;;;;1.10;99.90;;;;;;5067171;28;19949;-84
2023/01/22 05:03:18;;;;;;;;;;;1.20;99.90;;;;;;5057111;28;19978;-85
2023/01/22 05:05:45;;;;;;;;;;;1.20;99.90;;;;;;5043427;28;19992;-83
2023/01/22 05:08:12;;;;;;;;;;;1.20;99.90;;;;;;5037777;28;19929;-82
2023/01/22 05:10:40;;;;;;;;;;;1.30;99.90;;;;;;5048472;28;20036;-81
2023/01/22 05:13:10;;;;;;;;;;;1.20;99.90;;;;;;5041262;28;19974;-83
2023/01/22 05:15:39;;;;;;;;;;;1.20;99.90;;;;;;5054479;28;20018;-84
2023/01/22 05:18:09;;;;;;;;;;;1.20;99.90;;;;;;5043255;28;19960;-84
2023/01/22 05:20:39;;;;;;;;;;;1.10;99.90;;;;;;5047862;28;19951;-83
2023/01/22 05:23:07;;;;;;;;;;;1.10;99.90;;;;;;5051765;28;19929;-84
2023/01/22 05:25:35;;;;;;;;;;;1.10;99.90;;;;;;5049298;28;19929;-83
2023/01/22 05:28:04;;;;;;;;;;;1.10;99.90;;;;;;5054683;28;19982;-82
2023/01/22 05:30:49;;;;;;;;;;;1.10;99.90;;;;;;5049102;28;20005;-82
2023/01/22 05:33:38;;;;;;;;;;;1.10;99.90;;;;;;5044400;28;20312;-82
2023/01/22 05:36:09;;;;;;;;;;;1.10;99.90;;;;;;5041956;28;19968;-80
2023/01/22 05:38:36;;;;;;;;;;;1.10;99.90;;;;;;5070938;28;19992;-81
2023/01/22 05:41:04;;;;;;;;;;;1.20;99.90;;;;;;5043454;28;20046;-79
2023/01/22 05:43:38;;;;;;;;;;;1.20;99.90;;;;;;5045361;28;19955;-81
2023/01/22 05:46:06;;;;;;;;;;;1.20;99.90;;;;;;5047864;28;19929;-81
2023/01/22 05:48:45;;;;;;;;;;;1.20;99.90;;;;;;5062180;28;20007;-80
2023/01/22 05:51:20;;;;;;;;;;;1.30;99.90;;;;;;5040285;28;19992;-80
2023/01/22 05:53:47;;;;;;;;;;;1.30;99.90;;;;;;5055825;28;19924;-79
2023/01/22 05:56:15;;;;;;;;;;;1.10;99.90;;;;;;5048307;28;20373;-80
2023/01/22 05:58:43;;;;;;;;;;;1.20;99.90;;;;;;5035928;28;19928;-81
2023/01/22 06:01:14;;;;;;;;;;;1.30;99.90;;;;;;5036025;28;20303;-81
2023/01/22 06:03:46;;;;;;;;;;;1.30;99.90;;;;;;5036107;28;19929;-81
2023/01/22 06:06:17;;;;;;;;;;;1.30;99.90;;;;;;5043878;28;19925;-81
2023/01/22 06:08:45;;;;;;;;;;;1.30;99.90;;;;;;5054959;28;19931;-81
2023/01/22 06:11:14;;;;;;;;;;;1.40;99.90;;;;;;5040025;28;20032;-82
2023/01/22 06:13:46;;;;;;;;;;;1.40;99.90;;;;;;5047760;28;19936;-81
2023/01/22 06:16:21;;;;;;;;;;;1.50;99.90;;;;;;5037020;28;19929;-81
2023/01/22 06:19:26;;;;;;;;;;;1.50;99.90;;;;;;5036510;28;19933;-80
2023/01/22 06:21:54;;;;;;;;;;;1.40;99.90;;;;;;5039922;28;19928;-81
2023/01/22 06:24:30;;;;;;;;;;;1.50;99.90;;;;;;5050911;28;19929;-84
2023/01/22 06:26:59;;;;;;;;;;;1.50;99.90;;;;;;5048305;28;19960;-85
2023/01/22 06:29:37;;;;;;;;;;;1.60;99.90;;;;;;5040519;28;19925;-84
2023/01/22 06:32:04;;;;;;;;;;;1.60;99.90;;;;;;5063434;28;19960;-84
2023/01/22 06:34:31;;;;;;;;;;;1.60;99.90;;;;;;5051092;28;19928;-84
2023/01/22 06:36:59;;;;;;;;;;;1.60;99.90;;;;;;5044280;28;19932;-83
2023/01/22 06:39:30;;;;;;;;;;;1.60;99.90;;;;;;5037218;28;20410;-83
2023/01/22 06:42:02;;;;;;;;;;;1.60;99.90;;;;;;5043816;28;19959;-83
2023/01/22 06:44:30;;;;;;;;;;;1.60;99.90;;;;;;5038448;28;19935;-82
2023/01/22 06:46:59;;;;;;;;;;;1.60;99.90;;;;;;5049342;28;20339;-84
2023/01/22 06:49:31;;;;;;;;;;;1.60;99.90;;;;;;5063088;28;19983;-82
2023/01/22 06:51:58;;;;;;;;;;;1.50;99.90;;;;;;5068356;28;19928;-81
2023/01/22 06:54:25;;;;;;;;;;;1.60;99.90;;;;;;5048506;28;19928;-84
2023/01/22 06:56:52;;;;;;;;;;;1.60;99.90;;;;;;5045649;28;19940;-81
2023/01/22 06:59:22;;;;;;;;;;;1.60;99.90;;;;;;5036343;28;19928;-82
2023/01/22 07:01:49;;;;;;;;;;;1.50;99.90;;;;;;5046796;28;20494;-83
2023/01/22 07:04:17;;;;;;;;;;;1.50;99.90;;;;;;5058443;28;20274;-82
2023/01/22 07:06:44;;;;;;;;;;;1.50;99.90;;;;;;5043855;28;19925;-82
2023/01/22 07:09:11;;;;;;;;;;;1.40;99.90;;;;;;5047908;28;20008;-84
2023/01/22 07:11:38;;;;;;;;;;;1.40;99.90;;;;;;5064685;28;19968;-83
2023/01/22 07:14:05;;;;;;;;;;;1.40;99.90;;;;;;5041177;28;19929;-85
2023/01/22 07:16:32;;;;;;;;;;;1.40;99.90;;;;;;5069659;28;20443;-84
2023/01/22 07:19:00;;;;;;;;;;;1.40;99.90;;;;;;5056131;28;19964;-83
2023/01/22 07:21:28;;;;;;;;;;;1.30;99.90;;;;;;5035425;28;20540;-83
2023/01/22 07:23:55;;;;;;;;;;;1.30;99.90;;;;;;5047778;28;20513;-84
2023/01/22 07:26:22;;;;;;;;;;;1.20;99.90;;;;;;5018307;28;19936;-83
2023/01/22 07:28:50;;;;;;;;;;;1.20;99.90;;;;;;5043682;28;19935;-82
2023/01/22 07:31:17;;;;;;;;;;;1.20;99.90;;;;;;5035472;28;19978;-82
2023/01/22 07:33:43;;;;;;;;;;;1.20;99.90;;;;;;5043637;28;19935;-82
2023/01/22 07:36:10;;;;;;;;;;;1.20;99.90;;;;;;5042313;28;19933;-82
2023/01/22 07:38:39;;;;;;;;;;;1.20;99.90;;;;;;5044279;28;19929;-81
2023/01/22 07:41:07;;;;;;;;;;;1.20;99.90;;;;;;5062369;28;19928;-81
2023/01/22 07:43:34;;;;;;;;;;;1.50;99.90;;;;;;5070319;28;19960;-82
2023/01/22 07:46:01;;;;;;;;;;;1.10;99.90;;;;;;5052375;28;19935;-82
2023/01/22 07:48:29;;;;;;;;;;;1.10;99.90;;;;;;5071735;28;19924;-83
2023/01/22 07:50:59;;;;;;;;;;;1.10;99.90;;;;;;5048878;28;20316;-84
2023/01/22 07:53:26;;;;;;;;;;;1.10;99.90;;;;;;5062851;28;19929;-82
2023/01/22 07:55:57;;;;;;;;;;;1.10;99.90;;;;;;5076964;28;20418;-82
2023/01/22 07:58:24;;;;;;;;;;;1.10;99.90;;;;;;5053037;28;19998;-82
2023/01/22 08:00:51;;;;;;;;;;;1.10;99.90;;;;;;5043219;28;19925;-82
2023/01/22 08:03:18;;;;;;;;;;;1.20;99.90;;;;;;5047222;28;19928;-82
2023/01/22 08:05:45;;;;;;;;;;;1.20;99.90;;;;;;5061522;28;20446;-81
2023/01/22 08:08:13;;;;;;;;;;;1.30;99.90;;;;;;5054445;28;20352;-81
2023/01/22 08:10:41;;;;;;;;;;;1.30;99.90;;;;;;5048351;28;20011;-84
2023/01/22 08:13:10;;;;;;;;;;;1.30;99.90;;;;;;5062453;28;19955;-84
2023/01/22 08:15:37;;;;;;;;;;;1.30;99.90;;;;;;5059210;28;19967;-84
2023/01/22 08:18:06;;;;;;;;;;;1.40;99.90;;;;;;5043070;28;19995;-84
2023/01/22 08:20:33;;;;;;;;;;;1.50;99.90;;;;;;5057778;28;19935;-83
2023/01/22 08:23:00;;;;;;;;;;;1.50;99.90;;;;;;5040539;28;19959;-83
2023/01/22 08:25:28;;;;;;;;;;;1.50;99.90;;;;;;5062550;28;19929;-82
2023/01/22 08:27:54;;;;;;;;;;;1.60;99.90;;;;;;5055533;28;20349;-82
2023/01/22 08:30:23;;;;;;;;;;;1.50;99.90;;;;;;5051830;28;19929;-82
2023/01/22 08:32:50;;;;;;;;;;;1.50;99.90;;;;;;5038445;28;19933;-83
2023/01/22 08:35:18;;;;;;;;;;;1.60;99.90;;;;;;5042589;28;19933;-82
2023/01/22 08:37:45;;;;;;;;;;;1.60;99.90;;;;;;5039871;28;19929;-83
2023/01/22 08:40:12;;;;;;;;;;;1.60;99.90;;;;;;5060776;28;19925;-83
2023/01/22 08:42:39;;;;;;;;;;;1.60;99.90;;;;;;5054028;28;19937;-84
2023/01/22 08:45:07;;;;;;;;;;;1.60;99.90;;;;;;5040679;28;19931;-83
2023/01/22 08:47:35;;;;;;;;;;;1.50;99.90;;;;;;5055976;28;19924;-83
2023/01/22 08:50:03;;;;;;;;;;;1.60;99.90;;;;;;5070300;28;19932;-84
2023/01/22 08:52:30;;;;;;;;;;;1.60;99.90;;;;;;5063100;28;19982;-84
2023/01/22 08:54:57;;;;;;;;;;;1.60;99.90;;;;;;5051211;28;19936;-84
2023/01/22 08:57:24;;;;;;;;;;;1.60;99.90;;;;;;5044072;28;20343;-83
2023/01/22 08:59:51;;;;;;;;;;;1.60;99.90;;;;;;5042628;28;19932;-83
2023/01/22 09:02:18;;;;;;;;;;;1.70;99.90;;;;;;5039710;28;19929;-84
2023/01/22 09:04:46;;;;;;;;;;;1.70;99.90;;;;;;5055361;28;20337;-83
2023/01/22 09:07:13;;;;;;;;;;;1.80;99.90;;;;;;5019049;28;19936;-82
2023/01/22 09:09:40;;;;;;;;;;;1.80;99.90;;;;;;5054256;28;20385;-82
2023/01/22 09:12:07;;;;;;;;;;;1.90;99.90;;;;;;5049891;28;19935;-82
2023/01/22 09:14:34;;;;;;;;;;;1.90;99.90;;;;;;5046455;28;20486;-81
2023/01/22 09:17:01;;;;;;;;;;;2.00;99.90;;;;;;5043150;28;20447;-83
2023/01/22 09:19:28;;;;;;;;;;;2.00;99.90;;;;;;5048922;28;20497;-78
2023/01/22 09:21:56;;;;;;;;;;;2.00;99.90;;;;;;5038936;28;20448;-78
2023/01/22 09:24:23;;;;;;;;;;;2.00;99.90;;;;;;5041637;28;19929;-80
2023/01/22 09:26:51;;;;;;;;;;;1.90;99.90;;;;;;5059706;28;20043;-77
2023/01/22 09:29:22;;;;;;;;;;;2.00;99.90;;;;;;5034123;28;20017;-79
2023/01/22 09:31:51;;;;;;;;;;;2.00;99.90;;;;;;5050135;28;19936;-76
2023/01/22 09:34:18;;;;;;;;;;;2.00;99.90;;;;;;5034798;28;19935;-79
2023/01/22 09:36:46;;;;;;;;;;;2.00;99.90;;;;;;5036486;28;20341;-76
2023/01/22 09:39:15;;;;;;;;;;;1.90;99.90;;;;;;5030699;28;19931;-80
2023/01/22 09:41:45;;;;;;;;;;;1.90;99.90;;;;;;5056755;28;20337;-77
2023/01/22 09:44:16;;;;;;;;;;;1.90;99.90;;;;;;5043652;28;20388;-78
2023/01/22 09:46:52;;;;;;;;;;;2.00;99.90;;;;;;5038277;28;19956;-82
2023/01/22 09:49:20;;;;;;;;;;;2.10;99.90;;;;;;5037375;28;19928;-80
2023/01/22 09:51:53;;;;;;;;;;;2.10;99.90;;;;;;5038722;28;20692;-79
2023/01/22 09:54:22;;;;;;;;;;;2.10;99.90;;;;;;5053039;28;19939;-77
2023/01/22 09:56:49;;;;;;;;;;;2.10;99.90;;;;;;5043545;28;19921;-77
2023/01/22 09:59:17;;;;;;;;;;;2.20;99.90;;;;;;5033486;28;19998;-76
2023/01/22 10:01:46;;;;;;;;;;;2.30;99.90;;;;;;5052307;28;19940;-79
2023/01/22 10:04:20;;;;;;;;;;;2.30;99.90;;;;;;5036437;28;20015;-77
2023/01/22 10:06:47;;;;;;;;;;;2.10;99.90;;;;;;5048489;28;20312;-77
2023/01/22 10:09:17;;;;;;;;;;;2.10;99.90;;;;;;5039402;28;20586;-77
2023/01/22 10:11:50;;;;;;;;;;;2.00;99.90;;;;;;5032077;28;20104;-78
2023/01/22 10:14:18;;;;;;;;;;;1.90;99.90;;;;;;5031956;28;20400;-76
2023/01/22 10:16:45;;;;;;;;;;;2.00;99.90;;;;;;5030605;28;19928;-76
2023/01/22 10:19:17;;;;;;;;;;;2.00;99.90;;;;;;5054392;28;20128;-76
2023/01/22 10:21:46;;;;;;;;;;;2.00;99.90;;;;;;5034786;28;20308;-76
2023/01/22 10:24:13;;;;;;;;;;;2.00;99.90;;;;;;5038958;28;19929;-76
2023/01/22 10:26:41;;;;;;;;;;;2.00;99.90;;;;;;5036811;28;20352;-76
2023/01/22 10:29:12;;;;;;;;;;;2.00;99.90;;;;;;5030643;28;19926;-75
2023/01/22 10:31:40;;;;;;;;;;;2.10;99.90;;;;;;5050151;28;19989;-77
2023/01/22 10:34:10;;;;;;;;;;;2.20;99.90;;;;;;5029557;28;19929;-77
2023/01/22 10:36:37;;;;;;;;;;;2.30;99.90;;;;;;5061870;28;20063;-77
2023/01/22 10:39:06;;;;;;;;;;;2.40;99.90;;;;;;5038112;28;20316;-77
2023/01/22 10:41:33;;;;;;;;;;;2.50;99.90;;;;;;5032255;28;19928;-80
2023/01/22 10:44:17;;;;;;;;;;;2.60;99.90;;;;;;5038662;28;19931;-80
2023/01/22 10:46:47;;;;;;;;;;;2.60;99.90;;;;;;5057025;28;20396;-80
2023/01/22 10:49:16;;;;;;;;;;;2.50;99.90;;;;;;5038068;28;19931;-81
2023/01/22 10:51:45;;;;;;;;;;;2.50;99.90;;;;;;5055921;28;19924;-80
2023/01/22 10:54:19;;;;;;;;;;;2.50;99.90;;;;;;5048312;28;19928;-80
2023/01/22 10:56:46;;;;;;;;;;;2.50;99.90;;;;;;5048015;28;20002;-80
2023/01/22 10:59:22;;;;;;;;;;;2.50;99.90;;;;;;5043839;28;19944;-80
2023/01/22 11:01:49;;;;;;;;;;;2.40;99.90;;;;;;5045927;28;19933;-80
2023/01/22 11:04:21;;;;;;;;;;;2.50;99.90;;;;;;5036412;28;19937;-80
2023/01/22 11:06:49;;;;;;;;;;;2.60;99.90;;;;;;5036592;28;19935;-80
2023/01/22 11:09:17;;;;;;;;;;;2.70;99.90;;;;;;5036204;28;19943;-80
2023/01/22 11:11:47;;;;;;;;;;;2.80;99.90;;;;;;5036739;28;19992;-80
2023/01/22 11:14:17;;;;;;;;;;;2.70;99.90;;;;;;5042813;28;19967;-80
2023/01/22 11:16:49;;;;;;;;;;;2.80;99.90;;;;;;5041732;28;20400;-80
2023/01/22 11:19:18;;;;;;;;;;;2.80;99.90;;;;;;5059498;28;19932;-82
2023/01/22 11:21:46;;;;;;;;;;;2.80;99.90;;;;;;5058438;28;19968;-81
2023/01/22 11:24:14;;;;;;;;;;;2.70;99.90;;;;;;5056254;28;20799;-81
2023/01/22 11:26:55;;;;;;;;;;;2.80;99.90;;;;;;5042150;28;20016;-80
2023/01/22 11:29:44;;;;;;;;;;;2.80;99.90;;;;;;5045694;28;19932;-81
2023/01/22 11:32:41;;;;;;;;;;;2.90;99.90;;;;;;5045058;28;19951;-81
2023/01/22 11:35:17;;;;;;;;;;;2.90;99.90;;;;;;4988279;28;20032;-82
2023/01/22 11:37:48;;;;;;;;;;;3.00;99.90;;;;;;5030709;28;19936;-81
2023/01/22 11:40:21;;;;;;;;;;;3.00;99.90;;;;;;5041483;28;19929;-81
2023/01/22 11:42:54;;;;;;;;;;;3.10;99.90;;;;;;5041083;28;19932;-81
2023/01/22 11:45:42;;;;;;;;;;;3.00;99.90;;;;;;5042440;28;19929;-80
2023/01/22 11:48:19;;;;;;;;;;;3.00;99.90;;;;;;5037488;28;19913;-82
2023/01/22 11:50:49;;;;;;;;;;;3.00;99.90;;;;;;5043286;28;19913;-81
2023/01/22 11:53:28;;;;;;;;;;;3.00;99.90;;;;;;5043198;28;19913;-81
2023/01/22 11:56:03;;;;;;;;;;;3.00;99.90;;;;;;5044433;28;19920;-80
2023/01/22 11:58:36;;;;;;;;;;;3.00;99.90;;;;;;5057923;28;19933;-80
2023/01/22 12:01:12;;;;;;;;;;;3.00;99.90;;;;;;5042167;28;19925;-81
2023/01/22 12:03:50;;;;;;;;;;;3.00;99.90;;;;;;5070310;28;19924;-80
2023/01/22 12:06:30;;;;;;;;;;;3.10;99.90;;;;;;5061967;28;19935;-80
2023/01/22 12:09:03;;;;;;;;;;;3.10;99.90;;;;;;5078002;28;19924;-80
2023/01/22 12:11:36;;;;;;;;;;;3.10;99.90;;;;;;5055128;28;19925;-80
2023/01/22 12:14:10;;;;;;;;;;;3.10;99.90;;;;;;5032409;28;19925;-78
2023/01/22 12:16:43;;;;;;;;;;;3.10;99.90;;;;;;5020908;28;19999;-78
2023/01/22 12:19:28;;;;;;;;;;;3.10;99.90;;;;;;5047618;28;20002;-80
2023/01/22 12:22:00;;;;;;;;;;;3.10;99.90;;;;;;5044486;28;19932;-81
2023/01/22 12:24:30;;;;;;;;;;;3.10;99.90;;;;;;5039351;28;19925;-79
2023/01/22 12:26:59;;;;;;;;;;;3.00;99.90;;;;;;5061739;28;20456;-79
2023/01/22 12:29:28;;;;;;;;;;;3.00;99.90;;;;;;5039733;28;19924;-78
2023/01/22 12:31:58;;;;;;;;;;;3.00;99.90;;;;;;5039907;28;20541;-80
2023/01/22 12:34:27;;;;;;;;;;;3.00;99.90;;;;;;5040921;28;19936;-80
2023/01/22 12:36:54;;;;;;;;;;;3.10;99.90;;;;;;5040544;28;19932;-79
2023/01/22 12:39:29;;;;;;;;;;;3.10;99.90;;;;;;5072542;28;19924;-80
2023/01/22 12:42:04;;;;;;;;;;;3.00;99.90;;;;;;5046162;28;20523;-81
2023/01/22 12:44:37;;;;;;;;;;;3.00;99.90;;;;;;5039237;28;19933;-80
2023/01/22 12:47:07;;;;;;;;;;;3.00;99.90;;;;;;5038252;28;20027;-79
2023/01/22 12:49:44;;;;;;;;;;;3.00;99.90;;;;;;5037708;28;20357;-79
2023/01/22 12:52:26;;;;;;;;;;;3.00;99.90;;;;;;5024570;28;20309;-80
2023/01/22 12:54:55;;;;;;;;;;;3.10;99.90;;;;;;5040160;28;19935;-80
2023/01/22 12:57:23;;;;;;;;;;;3.10;99.90;;;;;;5037966;28;19924;-79
2023/01/22 12:59:51;;;;;;;;;;;3.10;99.90;;;;;;5038469;28;20305;-79
2023/01/22 13:02:25;;;;;;;;;;;3.20;99.90;;;;;;5054564;28;20391;-79
2023/01/22 13:04:53;;;;;;;;;;;3.20;99.90;;;;;;5038838;28;19931;-80
2023/01/22 13:07:21;;;;;;;;;;;3.10;99.90;;;;;;5038478;28;19928;-81
2023/01/22 13:09:48;;;;;;;;;;;3.20;99.90;;;;;;5046528;28;19939;-80
2023/01/22 13:12:25;;;;;;;;;;;3.20;99.90;;;;;;5041988;28;19936;-79
2023/01/22 13:14:52;;;;;;;;;;;3.30;99.90;;;;;;5056539;28;19924;-80
2023/01/22 13:17:20;;;;;;;;;;;3.30;99.90;;;;;;5038733;28;19929;-80
2023/01/22 13:19:49;;;;;;;;;;;3.40;99.90;;;;;;5037739;28;19928;-80
2023/01/22 13:22:23;;;;;;;;;;;3.40;99.90;;;;;;5037375;28;19950;-80
2023/01/22 13:24:52;;;;;;;;;;;3.40;99.90;;;;;;5034947;28;19932;-78
2023/01/22 13:27:24;;;;;;;;;;;3.40;99.90;;;;;;5043043;28;19931;-80
2023/01/22 13:29:51;;;;;;;;;;;3.40;99.90;;;;;;5053997;28;19936;-78
2023/01/22 13:32:20;;;;;;;;;;;3.30;99.90;;;;;;5046932;28;19925;-80
2023/01/22 13:34:46;;;;;;;;;;;3.40;99.90;;;;;;5056518;28;19936;-80
2023/01/22 13:37:34;;;;;;;;;;;3.30;99.90;;;;;;5035682;28;19928;-80
2023/01/22 13:40:10;;;;;;;;;;;3.30;99.90;;;;;;5037381;28;19960;-79
2023/01/22 13:42:39;;;;;;;;;;;3.30;99.90;;;;;;5054831;28;19951;-79
2023/01/22 13:45:06;;;;;;;;;;;3.30;99.90;;;;;;5063348;28;20338;-80
2023/01/22 13:47:35;;;;;;;;;;;3.30;99.90;;;;;;5029591;28;20697;-81
2023/01/22 13:50:04;;;;;;;;;;;3.30;99.90;;;;;;5044169;28;20368;-81
2023/01/22 13:52:32;;;;;;;;;;;3.40;99.90;;;;;;5037653;28;19929;-80
2023/01/22 13:55:01;;;;;;;;;;;3.50;99.90;;;;;;5056442;28;20289;-79
2023/01/22 13:57:27;;;;;;;;;;;3.50;99.90;;;;;;5055886;28;20019;-79
2023/01/22 13:59:58;;;;;;;;;;;3.50;99.90;;;;;;5037186;28;19935;-79
2023/01/22 14:02:28;;;;;;;;;;;3.50;99.90;;;;;;5038172;28;19924;-78
2023/01/22 14:04:55;;;;;;;;;;;3.40;99.90;;;;;;5053789;28;19925;-78
2023/01/22 14:07:23;;;;;;;;;;;3.40;99.90;;;;;;5035545;28;20316;-78
2023/01/22 14:09:50;;;;;;;;;;;3.30;99.90;;;;;;5037359;28;20156;-79
2023/01/22 14:12:18;;;;;;;;;;;3.40;99.90;;;;;;5037154;28;19936;-79
2023/01/22 14:14:45;;;;;;;;;;;3.40;99.90;;;;;;5037044;28;19925;-79
2023/01/22 14:17:25;;;;;;;;;;;3.30;99.90;;;;;;5037799;28;19935;-79
2023/01/22 14:19:52;;;;;;;;;;;3.30;99.90;;;;;;5017463;28;19929;-78
2023/01/22 14:22:19;;;;;;;;;;;3.40;99.90;;;;;;5016857;28;19925;-79
2023/01/22 14:24:46;;;;;;;;;;;3.40;99.90;;;;;;5034428;28;19929;-78
2023/01/22 14:27:13;;;;;;;;;;;3.30;99.90;;;;;;5035043;28;19956;-78
2023/01/22 14:29:40;;;;;;;;;;;3.40;99.90;;;;;;5035948;28;19924;-77
2023/01/22 14:32:07;;;;;;;;;;;3.40;99.90;;;;;;5037798;28;20016;-79
2023/01/22 14:34:36;;;;;;;;;;;3.40;99.90;;;;;;5044355;28;19928;-78
2023/01/22 14:37:03;;;;;;;;;;;3.40;99.90;;;;;;5055035;28;19933;-78
2023/01/22 14:39:32;;;;;;;;;;;3.40;99.90;;;;;;5036750;28;19932;-78
2023/01/22 14:41:59;;;;;;;;;;;3.30;99.90;;;;;;5045345;28;19990;-78
2023/01/22 14:44:26;;;;;;;;;;;3.40;99.90;;;;;;5035172;28;19968;-79
2023/01/22 14:46:54;;;;;;;;;;;3.40;99.90;;;;;;5031700;28;20409;-78
2023/01/22 14:49:22;;;;;;;;;;;3.40;99.90;;;;;;5017039;28;19940;-79
2023/01/22 14:51:51;;;;;;;;;;;3.40;99.90;;;;;;5042042;28;19963;-78
2023/01/22 14:54:18;;;;;;;;;;;3.50;99.90;;;;;;5036406;28;20031;-79
2023/01/22 14:56:45;;;;;;;;;;;3.50;99.90;;;;;;5036291;28;20036;-79